Latest Weather Observations for Banana Bank

IDQ60901

Issued at 9:31 pm EST Wednesday 24 May 2017 (issued every 10 minutes, with the page automatically refreshed every 10 minutes)

About weather observations | Map of Brisbane area stations | Latest observations for Brisbane area | Other Formats
Station Details ID: 040925 Name: BANANA BANK NORTH BEACON Lat: -27.53 Lon: 153.33 Height: 7.0 m
Data from the previous 72 hours. | See also: Recent months for locations in Queensland
Date/Time
EST
Temp
°C
App
Temp
°C
Dew
Point
°C
Rel
Hum
%
Delta-T
°C
Wind Press
QNH
hPa
Press
MSL
hPa
Rain since
9am
mm
Dir  Spd
km/h
Gust
km/h
Spd
kts
Gust
kts
24/09:30pm - - - - - N 15 17 8 9 - - -
24/09:00pm - - - - - N 17 20 9 11 - - -
24/08:30pm - - - - - N 17 19 9 10 - - -
24/08:00pm - - - - - N 13 15 7 8 - - -
24/07:30pm - - - - - N 15 19 8 10 - - -
24/07:00pm - - - - - N 19 20 10 11 - - -
24/06:30pm - - - - - N 17 19 9 10 - - -
24/06:00pm - - - - - N 17 19 9 10 - - -
24/05:30pm - - - - - N 15 19 8 10 - - -
24/05:00pm - - - - - N 17 20 9 11 - - -
24/04:30pm - - - - - N 17 19 9 10 - - -
24/04:00pm - - - - - N 17 20 9 11 - - -
24/03:30pm - - - - - N 17 20 9 11 - - -
24/03:00pm - - - - - N 17 19 9 10 - - -
24/02:30pm - - - - - N 17 19 9 10 - - -
24/02:00pm - - - - - N 13 17 7 9 - - -
24/01:30pm - - - - - N 11 13 6 7 - - -
24/01:00pm - - - - - N 9 11 5 6 - - -
24/12:30pm - - - - - NNE 6 6 3 3 - - -
24/12:00pm - - - - - NE 4 4 2 2 - - -
24/11:30am - - - - - CALM 0 2 0 1 - - -
24/11:00am - - - - - WSW 4 7 2 4 - - -
24/10:30am - - - - - W 7 11 4 6 - - -
24/10:00am - - - - - WSW 7 13 4 7 - - -
24/09:30am - - - - - WSW 7 11 4 6 - - -
24/09:00am - - - - - WSW 7 11 4 6 - - -
24/08:30am - - - - - WSW 7 11 4 6 - - -
24/08:00am - - - - - WSW 13 19 7 10 - - -
24/07:30am - - - - - WSW 9 13 5 7 - - -
24/07:00am - - - - - SW 9 11 5 6 - - -
24/06:30am - - - - - SW 9 11 5 6 - - -
24/06:00am - - - - - SW 11 13 6 7 - - -
24/05:30am - - - - - SW 9 13 5 7 - - -
24/05:00am - - - - - WSW 4 7 2 4 - - -
24/04:30am - - - - - W 4 6 2 3 - - -
24/04:00am - - - - - WSW 4 6 2 3 - - -
24/03:30am - - - - - S 6 7 3 4 - - -
24/03:00am - - - - - SSW 7 9 4 5 - - -
24/02:30am - - - - - CALM 0 0 0 0 - - -
24/02:00am - - - - - CALM 0 0 0 0 - - -
24/01:30am - - - - - CALM 0 0 0 0 - - -
24/01:00am - - - - - S 4 6 2 3 - - -
24/12:30am - - - - - SSW 6 6 3 3 - - -
24/12:00am - - - - - SW 6 7 3 4 - - -
 
Date/Time
EST
Temp
°C
App
Temp
°C
Dew
Point
°C
Rel
Hum
%
Delta-T
°C
Wind Press
QNH
hPa
Press
MSL
hPa
Rain since
9am
mm
Dir  Spd
km/h
Gust
km/h
Spd
kts
Gust
kts
23/11:30pm - - - - - SSW 9 11 5 6 - - -
23/11:00pm - - - - - SSW 9 9 5 5 - - -
23/10:30pm - - - - - SSW 9 9 5 5 - - -
23/10:00pm - - - - - SSW 7 7 4 4 - - -
23/09:30pm - - - - - SSW 7 9 4 5 - - -
23/09:00pm - - - - - S 4 4 2 2 - - -
23/08:30pm - - - - - S 4 4 2 2 - - -
23/08:00pm - - - - - SSE 4 6 2 3 - - -
23/07:30pm - - - - - SE 7 7 4 4 - - -
23/07:00pm - - - - - SSE 6 7 3 4 - - -
23/06:30pm - - - - - SE 7 9 4 5 - - -
23/06:00pm - - - - - SE 9 13 5 7 - - -
23/05:30pm - - - - - SE 9 9 5 5 - - -
23/05:00pm - - - - - E 9 13 5 7 - - -
23/04:30pm - - - - - ESE 13 15 7 8 - - -
23/04:00pm - - - - - ESE 13 17 7 9 - - -
23/03:30pm - - - - - ESE 9 11 5 6 - - -
23/03:00pm - - - - - ESE 9 9 5 5 - - -
23/02:30pm - - - - - ESE 9 11 5 6 - - -
23/02:00pm - - - - - ESE 6 7 3 4 - - -
23/01:30pm - - - - - ESE 6 7 3 4 - - -
23/01:00pm - - - - - ESE 6 6 3 3 - - -
23/12:30pm - - - - - SE 7 7 4 4 - - -
23/12:00pm - - - - - SE 7 9 4 5 - - -
23/11:30am - - - - - S 7 7 4 4 - - -
23/11:00am - - - - - S 7 9 4 5 - - -
23/10:30am - - - - - S 11 13 6 7 - - -
23/10:00am - - - - - S 11 15 6 8 - - -
23/09:30am - - - - - S 11 13 6 7 - - -
23/09:00am - - - - - SE 9 11 5 6 - - -
23/08:30am - - - - - SSW 7 9 4 5 - - -
23/08:00am - - - - - SSW 7 7 4 4 - - -
23/07:30am - - - - - SW 9 11 5 6 - - -
23/07:00am - - - - - S 9 9 5 5 - - -
23/06:30am - - - - - SSW 11 13 6 7 - - -
23/06:00am - - - - - SSW 13 15 7 8 - - -
23/05:30am - - - - - SW 11 13 6 7 - - -
23/05:00am - - - - - SW 7 9 4 5 - - -
23/04:30am - - - - - SW 9 13 5 7 - - -
23/04:00am - - - - - SSW 7 9 4 5 - - -
23/03:30am - - - - - S 11 13 6 7 - - -
23/03:00am - - - - - S 9 13 5 7 - - -
23/02:30am - - - - - SSW 13 15 7 8 - - -
23/02:00am - - - - - S 15 17 8 9 - - -
23/01:30am - - - - - S 15 19 8 10 - - -
23/01:00am - - - - - S 13 15 7 8 - - -
23/12:30am - - - - - S 11 13 6 7 - - -
23/12:00am - - - - - S 13 15 7 8 - - -
 
Date/Time
EST
Temp
°C
App
Temp
°C
Dew
Point
°C
Rel
Hum
%
Delta-T
°C
Wind Press
QNH
hPa
Press
MSL
hPa
Rain since
9am
mm
Dir  Spd
km/h
Gust
km/h
Spd
kts
Gust
kts
22/11:30pm - - - - - S 13 17 7 9 - - -
22/11:00pm - - - - - S 13 17 7 9 - - -
22/10:30pm - - - - - S 15 19 8 10 - - -
22/10:00pm - - - - - SSW 13 17 7 9 - - -
22/09:30pm - - - - - SSW 11 13 6 7 - - -
22/09:00pm - - - - - SSE 11 13 6 7 - - -
22/08:30pm - - - - - SSE 13 15 7 8 - - -
22/08:00pm - - - - - S 6 7 3 4 - - -
22/07:30pm - - - - - SSE 6 7 3 4 - - -
22/07:00pm - - - - - SSE 6 7 3 4 - - -
22/06:30pm - - - - - SE 7 9 4 5 - - -
22/06:00pm - - - - - SE 9 11 5 6 - - -
22/05:30pm - - - - - SE 15 17 8 9 - - -
22/05:00pm - - - - - SE 17 19 9 10 - - -
22/04:30pm - - - - - SE 19 22 10 12 - - -
22/04:00pm - - - - - SE 19 22 10 12 - - -
22/03:30pm - - - - - SE 19 22 10 12 - - -
22/03:00pm - - - - - ESE 19 22 10 12 - - -
22/02:30pm - - - - - SE 17 20 9 11 - - -
22/02:00pm - - - - - SE 19 20 10 11 - - -
22/01:30pm - - - - - SE 19 20 10 11 - - -
22/01:00pm - - - - - SE 17 19 9 10 - - -
22/12:30pm - - - - - SE 15 17 8 9 - - -
22/12:00pm - - - - - SE 13 15 7 8 - - -
22/11:30am - - - - - SSE 13 17 7 9 - - -
22/11:00am - - - - - SE 15 17 8 9 - - -
22/10:30am - - - - - S 13 15 7 8 - - -
22/10:00am - - - - - S 15 17 8 9 - - -
22/09:30am - - - - - S 13 17 7 9 - - -
22/09:00am - - - - - S 11 13 6 7 - - -
22/08:30am - - - - - SSE 13 15 7 8 - - -
22/08:00am - - - - - SSW 13 17 7 9 - - -
22/07:30am - - - - - SSW 17 19 9 10 - - -
22/07:00am - - - - - SSW 17 19 9 10 - - -
22/06:30am - - - - - SSW 17 19 9 10 - - -
22/06:00am - - - - - SSW 17 20 9 11 - - -
22/05:30am - - - - - SSW 15 17 8 9 - - -
22/05:00am - - - - - SSW 13 15 7 8 - - -
22/04:30am - - - - - S 13 17 7 9 - - -
22/04:00am - - - - - S 13 17 7 9 - - -
22/03:30am - - - - - SSW 17 20 9 11 - - -
22/03:00am - - - - - S 17 19 9 10 - - -
22/02:30am - - - - - S 17 19 9 10 - - -
22/02:00am - - - - - S 17 20 9 11 - - -
22/01:30am - - - - - S 15 17 8 9 - - -
22/01:00am - - - - - S 17 19 9 10 - - -
22/12:30am - - - - - S 15 17 8 9 - - -
22/12:00am - - - - - S 11 13 6 7 - - -
 
Date/Time
EST
Temp
°C
App
Temp
°C
Dew
Point
°C
Rel
Hum
%
Delta-T
°C
Wind Press
QNH
hPa
Press
MSL
hPa
Rain since
9am
mm
Dir  Spd
km/h
Gust
km/h
Spd
kts
Gust
kts
21/11:30pm - - - - - S 11 13 6 7 - - -
21/11:00pm - - - - - S 11 13 6 7 - - -
21/10:30pm - - - - - S 11 11 6 6 - - -
21/10:00pm - - - - - S 11 13 6 7 - - -

Latest Capital City Observations: Canberra | Sydney | Melbourne | Brisbane | Adelaide | Perth | Hobart | Darwin

Other Formats:

Comma delimited format used in spreadsheet applications
http://www.bom.gov.au/fwo/IDQ60901/IDQ60901.94591.axf

JavaScript Object Notation format (JSON) in row-major order
http://www.bom.gov.au/fwo/IDQ60901/IDQ60901.94591.json